createdAt,value
2022-12-04T00:01:44.111Z,35.70
2022-12-04T00:04:11.053Z,31.33
2022-12-04T00:06:37.893Z,35.27
2022-12-04T00:09:08.888Z,32.20
2022-12-04T00:11:41.934Z,32.50
2022-12-04T00:14:09.061Z,36.40
2022-12-04T00:16:36.024Z,34.50
2022-12-04T00:19:02.986Z,32.87
2022-12-04T00:21:30.658Z,33.13
2022-12-04T00:23:57.462Z,33.70
2022-12-04T00:26:27.022Z,35.47
2022-12-04T00:28:54.340Z,32.17
2022-12-04T00:31:23.918Z,35.80
2022-12-04T00:33:51.222Z,36.23
2022-12-04T00:36:20.463Z,35.53
2022-12-04T00:38:47.693Z,34.30
2022-12-04T00:41:17.401Z,34.33
2022-12-04T00:43:46.000Z,36.60
2022-12-04T00:46:12.951Z,36.37
2022-12-04T00:48:40.001Z,37.07
2022-12-04T00:51:12.769Z,36.27
2022-12-04T00:53:39.989Z,32.47
2022-12-04T00:56:15.187Z,32.83
2022-12-04T00:58:44.527Z,35.87
2022-12-04T01:01:14.683Z,33.30
2022-12-04T01:03:44.340Z,33.50
2022-12-04T01:06:24.606Z,39.03
2022-12-04T01:08:53.840Z,36.47
2022-12-04T01:11:21.435Z,35.63
2022-12-04T01:13:48.405Z,37.40
2022-12-04T01:16:17.142Z,36.80
2022-12-04T01:18:44.026Z,35.70
2022-12-04T01:21:12.500Z,36.00
2022-12-04T01:23:39.395Z,37.27
2022-12-04T01:26:06.322Z,37.47
2022-12-04T01:28:33.326Z,35.97
2022-12-04T01:31:06.532Z,38.27
2022-12-04T01:33:34.425Z,35.10
2022-12-04T01:36:02.582Z,33.93
2022-12-04T01:38:29.992Z,35.03
2022-12-04T01:40:57.459Z,36.10
2022-12-04T01:43:25.204Z,37.57
2022-12-04T01:45:59.962Z,35.57
2022-12-04T01:48:28.461Z,34.93
2022-12-04T01:51:01.203Z,36.03
2022-12-04T01:53:29.670Z,32.90
2022-12-04T01:55:56.663Z,36.90
2022-12-04T01:58:28.631Z,37.37
2022-12-04T02:01:00.779Z,37.27
2022-12-04T02:03:31.089Z,39.67
2022-12-04T02:05:58.774Z,37.60
2022-12-04T02:08:26.399Z,34.77
2022-12-04T02:11:07.640Z,37.07
2022-12-04T02:14:03.385Z,38.80
2022-12-04T02:16:41.816Z,40.13
2022-12-04T02:19:34.548Z,38.30
2022-12-04T02:22:05.004Z,39.23
2022-12-04T02:24:50.137Z,40.37
2022-12-04T02:27:31.368Z,39.53
2022-12-04T02:30:03.818Z,39.33
2022-12-04T02:32:38.628Z,35.70
2022-12-04T02:35:14.019Z,37.50
2022-12-04T02:37:50.588Z,37.20
2022-12-04T02:40:40.004Z,36.40
2022-12-04T02:43:12.694Z,39.53
2022-12-04T02:45:48.843Z,36.23
2022-12-04T02:48:19.647Z,37.97
2022-12-04T02:50:49.820Z,37.83
2022-12-04T02:53:20.006Z,38.43
2022-12-04T02:55:54.377Z,41.23
2022-12-04T03:00:49.102Z,38.03
2022-12-04T03:03:23.398Z,37.03
2022-12-04T03:08:20.461Z,34.83
2022-12-04T03:10:51.669Z,38.57
2022-12-04T03:13:46.492Z,37.90
2022-12-04T03:16:17.943Z,37.22
2022-12-04T03:19:03.824Z,35.30
2022-12-04T03:21:35.897Z,36.67
2022-12-04T03:24:36.865Z,39.27
2022-12-04T03:27:31.176Z,37.37
2022-12-04T03:30:04.236Z,38.08
2022-12-04T03:32:41.904Z,38.40
2022-12-04T03:35:17.504Z,36.93
2022-12-04T03:37:55.629Z,37.53
2022-12-04T03:40:57.831Z,39.53
2022-12-04T03:43:37.360Z,35.63
2022-12-04T03:46:15.860Z,38.47
2022-12-04T03:48:46.993Z,38.83
2022-12-04T03:51:18.295Z,38.43
2022-12-04T03:53:54.610Z,39.27
2022-12-04T03:56:24.902Z,38.60
2022-12-04T03:58:55.393Z,35.13
2022-12-04T04:01:25.107Z,37.87
2022-12-04T04:03:53.691Z,38.83
2022-12-04T04:06:37.421Z,37.73
2022-12-04T04:09:11.025Z,36.63
2022-12-04T04:11:47.566Z,37.67
2022-12-04T04:14:37.230Z,40.00
2022-12-04T04:17:26.352Z,36.20
2022-12-04T04:20:39.740Z,39.70
2022-12-04T04:23:28.326Z,36.33
2022-12-04T04:25:57.356Z,37.43
2022-12-04T04:28:32.605Z,35.60
2022-12-04T04:31:07.291Z,35.00
2022-12-04T04:33:36.618Z,38.50
2022-12-04T04:36:10.069Z,39.93
2022-12-04T04:38:45.352Z,36.50
2022-12-04T04:41:20.947Z,36.30
2022-12-04T04:44:03.530Z,35.67
2022-12-04T04:46:33.834Z,32.60
2022-12-04T04:49:03.543Z,37.77
2022-12-04T04:51:31.509Z,38.63
2022-12-04T04:54:00.089Z,35.57
2022-12-04T04:56:27.101Z,34.30
2022-12-04T04:58:53.888Z,35.30
2022-12-04T05:01:23.503Z,35.30
2022-12-04T05:03:50.525Z,35.40
2022-12-04T05:06:17.409Z,33.60
2022-12-04T05:08:44.397Z,34.47
2022-12-04T05:11:15.249Z,35.20
2022-12-04T05:13:42.587Z,36.47
2022-12-04T05:16:12.831Z,34.70
2022-12-04T05:18:40.071Z,36.83
2022-12-04T05:21:18.518Z,34.50
2022-12-04T05:23:45.329Z,34.33
2022-12-04T05:26:12.256Z,32.83
2022-12-04T05:28:41.034Z,35.00
2022-12-04T05:31:08.016Z,34.67
2022-12-04T05:33:34.990Z,35.40
2022-12-04T05:36:07.365Z,34.27
2022-12-04T05:38:34.515Z,36.57
2022-12-04T05:41:02.495Z,33.97
2022-12-04T05:43:29.791Z,37.40
2022-12-04T05:46:07.485Z,32.63
2022-12-04T05:48:35.689Z,34.80
2022-12-04T05:51:10.224Z,35.93
2022-12-04T05:53:37.484Z,34.27
2022-12-04T05:56:06.400Z,35.07
2022-12-04T05:58:37.397Z,34.30
2022-12-04T06:01:13.440Z,36.07
2022-12-04T06:03:40.515Z,36.77
2022-12-04T06:06:22.830Z,35.17
2022-12-04T06:08:54.762Z,37.20
2022-12-04T06:11:30.951Z,37.23
2022-12-04T06:13:59.596Z,37.10
2022-12-04T06:16:36.438Z,34.00
2022-12-04T06:19:15.689Z,34.33
2022-12-04T06:21:44.119Z,36.57
2022-12-04T06:24:15.410Z,36.27
2022-12-04T06:27:11.154Z,36.13
2022-12-04T06:29:33.652Z,35.40
2022-12-04T06:32:01.032Z,36.83
2022-12-04T06:34:28.279Z,36.13
2022-12-04T06:36:55.191Z,36.83
2022-12-04T06:39:22.194Z,36.97
2022-12-04T06:41:49.109Z,35.73
2022-12-04T06:44:16.113Z,37.93
2022-12-04T06:46:46.900Z,35.33
2022-12-04T06:49:14.641Z,37.63
2022-12-04T06:51:41.852Z,36.23
2022-12-04T06:54:10.076Z,38.03
2022-12-04T06:56:37.148Z,36.17
2022-12-04T06:59:05.002Z,38.83
2022-12-04T07:01:33.921Z,37.93
2022-12-04T07:04:03.475Z,37.03
2022-12-04T07:06:33.092Z,38.43
2022-12-04T07:09:03.498Z,38.20
2022-12-04T07:11:31.109Z,38.23
2022-12-04T07:13:58.139Z,38.33
2022-12-04T07:16:26.825Z,38.97
2022-12-04T07:18:54.174Z,37.73
2022-12-04T07:21:24.389Z,38.17
2022-12-04T07:23:53.062Z,36.90
2022-12-04T07:26:20.490Z,37.70
2022-12-04T07:28:47.903Z,36.93
2022-12-04T07:31:17.862Z,36.73
2022-12-04T07:33:47.120Z,34.60
2022-12-04T07:36:19.445Z,37.10
2022-12-04T07:38:46.948Z,38.77
2022-12-04T07:41:14.548Z,35.23
2022-12-04T07:43:41.645Z,38.60
2022-12-04T07:46:13.445Z,36.70
2022-12-04T07:48:40.780Z,37.40
2022-12-04T07:51:10.298Z,38.40
2022-12-04T07:53:37.785Z,34.33
2022-12-04T07:56:06.019Z,37.03
2022-12-04T07:58:33.510Z,38.20
2022-12-04T08:01:08.802Z,37.07
2022-12-04T08:03:35.929Z,36.80
2022-12-04T08:06:04.673Z,36.57
2022-12-04T08:08:32.277Z,35.63
2022-12-04T08:10:59.894Z,35.23
2022-12-04T08:13:26.896Z,34.47
2022-12-04T08:15:53.886Z,34.03
2022-12-04T08:18:20.942Z,33.10
2022-12-04T08:20:47.923Z,33.20
2022-12-04T08:23:14.842Z,33.93
2022-12-04T08:25:41.926Z,35.97
2022-12-04T08:28:09.061Z,33.10
2022-12-04T08:30:36.442Z,34.17
2022-12-04T08:33:03.458Z,33.03
2022-12-04T08:35:30.493Z,34.97
2022-12-04T08:37:57.473Z,33.10
2022-12-04T08:40:24.481Z,33.93
2022-12-04T08:42:51.516Z,32.03
2022-12-04T08:45:18.404Z,33.80
2022-12-04T08:47:49.299Z,32.70
2022-12-04T08:50:19.125Z,32.97
2022-12-04T08:52:45.947Z,29.77
2022-12-04T08:55:12.879Z,32.57
2022-12-04T08:57:39.756Z,32.43
2022-12-04T09:00:07.296Z,31.67
2022-12-04T09:02:34.160Z,30.43
2022-12-04T09:05:01.141Z,30.60
2022-12-04T09:07:28.107Z,32.50
2022-12-04T09:09:55.270Z,31.03
2022-12-04T09:12:22.344Z,32.90
2022-12-04T09:14:49.379Z,32.47
2022-12-04T09:17:16.277Z,31.27
2022-12-04T09:19:43.685Z,30.23
2022-12-04T09:22:11.181Z,30.97
2022-12-04T09:24:38.219Z,29.40
2022-12-04T09:27:07.626Z,32.43
2022-12-04T09:29:38.326Z,29.40
2022-12-04T09:32:07.935Z,28.63
2022-12-04T09:34:36.138Z,29.80
2022-12-04T09:37:03.463Z,29.77
2022-12-04T09:39:30.556Z,27.83
2022-12-04T09:42:08.483Z,29.50
2022-12-04T09:44:40.976Z,30.67
2022-12-04T09:47:20.090Z,28.40
2022-12-04T09:49:51.099Z,27.73
2022-12-04T09:52:24.538Z,29.70
2022-12-04T09:54:52.360Z,28.75
2022-12-04T09:57:28.116Z,31.03
2022-12-04T09:59:55.500Z,30.63
2022-12-04T10:02:38.022Z,29.73
2022-12-04T10:05:07.567Z,31.03
2022-12-04T10:07:53.164Z,29.73
2022-12-04T10:10:28.815Z,28.87
2022-12-04T10:13:14.423Z,28.77
2022-12-04T10:16:10.076Z,27.77
2022-12-04T10:18:51.229Z,31.03
2022-12-04T10:21:32.954Z,28.60
2022-12-04T10:24:18.850Z,28.23
2022-12-04T10:26:50.658Z,32.13
2022-12-04T10:29:26.488Z,29.37
2022-12-04T10:31:55.812Z,28.57
2022-12-04T10:34:27.799Z,29.17
2022-12-04T10:37:00.957Z,29.43
2022-12-04T10:39:42.791Z,27.97
2022-12-04T10:42:16.274Z,28.93
2022-12-04T10:44:43.890Z,28.00
2022-12-04T10:47:12.424Z,30.67
2022-12-04T10:49:40.858Z,27.57
2022-12-04T10:52:13.428Z,27.57
2022-12-04T10:54:51.243Z,29.43
2022-12-04T10:57:19.427Z,29.40
2022-12-04T10:59:57.165Z,29.47
2022-12-04T11:02:30.185Z,29.77
2022-12-04T11:05:21.891Z,29.80
2022-12-04T11:07:55.919Z,31.50
2022-12-04T11:10:43.282Z,30.20
2022-12-04T11:13:13.266Z,30.27
2022-12-04T11:15:45.934Z,28.33
2022-12-04T11:18:23.699Z,30.40
2022-12-04T11:21:05.838Z,28.33
2022-12-04T11:23:35.830Z,27.30
2022-12-04T11:26:05.878Z,29.00
2022-12-04T11:28:41.807Z,27.70
2022-12-04T11:31:11.656Z,28.33
2022-12-04T11:33:45.514Z,28.07
2022-12-04T11:36:22.260Z,27.42
2022-12-04T11:38:51.179Z,27.57
2022-12-04T11:41:30.919Z,27.10
2022-12-04T11:44:00.503Z,27.57
2022-12-04T11:46:34.278Z,28.80
2022-12-04T11:49:03.981Z,28.95
2022-12-04T11:51:53.632Z,28.67
2022-12-04T11:54:20.783Z,30.33
2022-12-04T11:56:54.398Z,27.70
2022-12-04T11:59:47.641Z,26.70
2022-12-04T12:02:38.932Z,28.77
2022-12-04T12:05:45.410Z,31.23
2022-12-04T12:08:33.594Z,29.73
2022-12-04T12:11:20.392Z,28.23
2022-12-04T12:14:06.723Z,28.57
2022-12-04T12:16:51.664Z,28.90
2022-12-04T12:19:34.084Z,27.23
2022-12-04T12:22:15.749Z,27.93
2022-12-04T12:24:55.193Z,29.40
2022-12-04T12:27:32.368Z,28.90
2022-12-04T12:30:21.794Z,30.00
2022-12-04T12:33:17.121Z,31.60
2022-12-04T12:35:44.548Z,29.53
2022-12-04T12:38:25.347Z,31.00
2022-12-04T12:41:11.132Z,30.03
2022-12-04T12:43:39.409Z,32.00
2022-12-04T12:46:35.297Z,31.63
2022-12-04T12:49:20.091Z,29.77
2022-12-04T12:52:05.374Z,31.93
2022-12-04T12:54:41.621Z,31.30
2022-12-04T12:57:22.123Z,28.27
2022-12-04T13:00:05.493Z,31.67
2022-12-04T13:02:47.761Z,31.90
2022-12-04T13:05:19.665Z,29.70
2022-12-04T13:08:05.319Z,30.30
2022-12-04T13:10:38.057Z,30.83
2022-12-04T13:13:18.039Z,29.80
2022-12-04T13:15:49.242Z,30.73
2022-12-04T13:18:28.731Z,30.20
2022-12-04T13:20:58.878Z,31.57
2022-12-04T13:23:40.969Z,29.03
2022-12-04T13:26:29.946Z,33.17
2022-12-04T13:29:04.062Z,30.33
2022-12-04T13:31:54.164Z,28.85
2022-12-04T13:34:39.969Z,31.63
2022-12-04T13:37:18.121Z,31.60
2022-12-04T13:40:05.004Z,30.47
2022-12-04T13:42:32.165Z,29.20
2022-12-04T13:45:03.803Z,29.70
2022-12-04T13:47:33.836Z,33.90
2022-12-04T13:50:08.516Z,29.40
2022-12-04T13:52:41.070Z,30.90
2022-12-04T13:55:32.501Z,30.27
2022-12-04T13:58:02.066Z,32.37
2022-12-04T14:00:36.927Z,31.33
2022-12-04T14:03:33.054Z,29.73
2022-12-04T14:06:05.380Z,33.20
2022-12-04T14:08:38.568Z,32.07
2022-12-04T14:11:09.714Z,31.63
2022-12-04T14:13:43.804Z,31.20
2022-12-04T14:16:23.509Z,31.27
2022-12-04T14:18:54.332Z,30.27
2022-12-04T14:21:21.329Z,32.23
2022-12-04T14:23:48.558Z,31.80
2022-12-04T14:27:10.215Z,34.43
2022-12-04T14:29:33.240Z,32.87
2022-12-04T14:34:32.044Z,34.30
2022-12-04T14:36:59.701Z,32.53
2022-12-04T14:39:29.961Z,30.33
2022-12-04T14:42:18.163Z,33.37
2022-12-04T14:44:46.207Z,32.20
2022-12-04T14:47:27.057Z,32.80
2022-12-04T14:50:10.400Z,32.53
2022-12-04T14:52:48.992Z,32.10
2022-12-04T14:55:32.467Z,30.53
2022-12-04T14:58:21.370Z,30.53
2022-12-04T15:00:53.062Z,31.70
2022-12-04T15:03:20.618Z,38.13
2022-12-04T15:05:47.917Z,38.23
2022-12-04T15:08:15.327Z,33.53
2022-12-04T15:11:07.856Z,31.70
2022-12-04T15:13:40.177Z,31.63
2022-12-04T15:16:19.106Z,29.23
2022-12-04T15:18:57.402Z,28.93
2022-12-04T15:21:37.180Z,32.80
2022-12-04T15:24:14.067Z,31.27
2022-12-04T15:26:41.035Z,30.50
2022-12-04T15:29:09.327Z,29.57
2022-12-04T15:31:53.384Z,31.07
2022-12-04T15:34:22.537Z,29.02
2022-12-04T15:37:02.261Z,29.70
2022-12-04T15:39:30.443Z,30.20
2022-12-04T15:42:29.823Z,29.33
2022-12-04T15:45:01.886Z,31.70
2022-12-04T15:47:29.668Z,29.33
2022-12-04T15:50:16.073Z,29.03
2022-12-04T15:53:06.321Z,30.10
2022-12-04T15:55:50.673Z,28.10
2022-12-04T15:58:32.346Z,31.73
2022-12-04T16:01:05.426Z,30.33
2022-12-04T16:03:41.453Z,30.10
2022-12-04T16:06:28.429Z,31.20
2022-12-04T16:08:57.419Z,30.75
2022-12-04T16:11:32.274Z,29.40
2022-12-04T16:14:03.808Z,29.27
2022-12-04T16:16:30.681Z,28.87
2022-12-04T16:18:57.603Z,28.17
2022-12-04T16:21:30.360Z,30.40
2022-12-04T16:24:07.550Z,31.37
2022-12-04T16:26:34.380Z,31.67
2022-12-04T16:29:01.170Z,32.00
2022-12-04T16:31:28.155Z,31.57
2022-12-04T16:33:54.996Z,30.43
2022-12-04T16:36:21.803Z,32.83
2022-12-04T16:38:48.614Z,31.27
2022-12-04T16:41:17.028Z,32.17
2022-12-04T16:43:44.121Z,33.47
2022-12-04T16:46:16.239Z,30.33
2022-12-04T16:48:43.334Z,31.30
2022-12-04T16:51:16.421Z,33.70
2022-12-04T16:53:43.243Z,32.07
2022-12-04T16:56:10.107Z,31.90
2022-12-04T16:58:36.948Z,29.90
2022-12-04T17:01:04.414Z,33.60
2022-12-04T17:03:33.405Z,35.00
2022-12-04T17:06:01.014Z,32.50
2022-12-04T17:08:28.378Z,34.97
2022-12-04T17:10:55.485Z,33.70
2022-12-04T17:13:22.991Z,33.97
2022-12-04T17:15:49.889Z,32.03
2022-12-04T17:18:21.300Z,33.57
2022-12-04T17:20:48.695Z,31.17
2022-12-04T17:23:15.638Z,34.33
2022-12-04T17:25:42.546Z,32.60
2022-12-04T17:28:09.358Z,31.80
2022-12-04T17:30:36.701Z,34.43
2022-12-04T17:33:05.017Z,31.10
2022-12-04T17:35:32.026Z,32.70
2022-12-04T17:38:05.402Z,35.07
2022-12-04T17:40:39.790Z,33.08
2022-12-04T17:43:06.654Z,34.92
2022-12-04T17:45:33.483Z,32.03
2022-12-04T17:48:00.781Z,31.97
2022-12-04T17:50:27.582Z,30.13
2022-12-04T17:52:54.386Z,33.17
2022-12-04T17:55:21.187Z,33.07
2022-12-04T17:57:48.067Z,33.27
2022-12-04T18:00:15.059Z,32.13
2022-12-04T18:02:42.493Z,33.20
2022-12-04T18:05:09.882Z,31.57
2022-12-04T18:07:36.883Z,33.07
2022-12-04T18:10:04.196Z,32.13
2022-12-04T18:12:31.060Z,34.40
2022-12-04T18:14:57.858Z,31.63
2022-12-04T18:17:24.649Z,32.17
2022-12-04T18:19:51.575Z,28.63
2022-12-04T18:22:18.403Z,30.67
2022-12-04T18:24:45.424Z,31.57
2022-12-04T18:27:12.208Z,31.13
2022-12-04T18:29:39.078Z,33.40
2022-12-04T18:32:05.947Z,31.40
2022-12-04T18:34:32.766Z,39.87
2022-12-04T18:36:59.551Z,29.33
2022-12-04T18:39:26.524Z,30.57
2022-12-04T18:41:57.065Z,28.83
2022-12-04T18:44:24.058Z,27.70
2022-12-04T18:46:50.848Z,28.70
2022-12-04T18:49:17.636Z,29.83
2022-12-04T18:51:49.574Z,29.30
2022-12-04T18:54:22.145Z,29.57
2022-12-04T18:56:49.388Z,29.13
2022-12-04T18:59:21.630Z,29.43
2022-12-04T19:01:50.243Z,35.10
2022-12-04T19:04:19.344Z,36.07
2022-12-04T19:06:48.463Z,34.03
2022-12-04T19:09:17.509Z,33.07
2022-12-04T19:11:44.987Z,29.97
2022-12-04T19:14:20.990Z,30.67
2022-12-04T19:16:50.542Z,29.27
2022-12-04T19:19:17.835Z,27.40
2022-12-04T19:21:44.805Z,45.03
2022-12-04T19:24:12.309Z,31.00
2022-12-04T19:26:39.194Z,30.17
2022-12-04T19:29:07.010Z,30.30
2022-12-04T19:31:36.188Z,29.93
2022-12-04T19:34:03.557Z,27.60
2022-12-04T19:36:31.300Z,29.83
2022-12-04T19:38:58.369Z,28.13
2022-12-04T19:41:27.462Z,28.30
2022-12-04T19:43:59.614Z,29.07
2022-12-04T19:46:28.589Z,31.23
2022-12-04T19:49:01.722Z,29.67
2022-12-04T19:51:32.122Z,28.77
2022-12-04T19:53:59.811Z,28.40
2022-12-04T19:56:27.362Z,28.70
2022-12-04T19:58:57.433Z,28.43
2022-12-04T20:01:26.690Z,27.07
2022-12-04T20:03:53.540Z,27.50
2022-12-04T20:06:22.363Z,27.67
2022-12-04T20:08:55.357Z,28.23
2022-12-04T20:11:22.434Z,30.17
2022-12-04T20:13:49.884Z,29.87
2022-12-04T20:16:18.159Z,27.83
2022-12-04T20:18:45.680Z,26.93
2022-12-04T20:21:13.079Z,27.63
2022-12-04T20:23:41.589Z,28.87
2022-12-04T20:26:10.857Z,31.20
2022-12-04T20:28:37.658Z,27.90
2022-12-04T20:31:34.702Z,28.73
2022-12-04T20:34:03.330Z,26.20
2022-12-04T20:36:31.181Z,28.70
2022-12-04T20:38:59.168Z,29.90
2022-12-04T20:41:30.616Z,26.80
2022-12-04T20:44:04.787Z,27.73
2022-12-04T20:46:36.591Z,25.73
2022-12-04T20:49:06.350Z,27.33
2022-12-04T20:51:40.506Z,27.50
2022-12-04T20:54:08.316Z,27.73
2022-12-04T20:56:36.804Z,29.80
2022-12-04T20:59:09.111Z,30.73
2022-12-04T21:01:39.444Z,29.30
2022-12-04T21:04:06.681Z,28.10
2022-12-04T21:06:39.157Z,28.93
2022-12-04T21:09:13.258Z,27.20
2022-12-04T21:12:00.404Z,30.00
2022-12-04T21:14:48.587Z,28.57
2022-12-04T21:17:19.042Z,29.23
2022-12-04T21:19:47.297Z,29.57
2022-12-04T21:22:15.109Z,29.37
2022-12-04T21:24:42.494Z,28.53
2022-12-04T21:27:12.415Z,29.83
2022-12-04T21:29:43.698Z,28.50
2022-12-04T21:32:10.728Z,29.30
2022-12-04T21:34:37.614Z,29.97
2022-12-04T21:37:04.420Z,27.73
2022-12-04T21:39:31.259Z,28.17
2022-12-04T21:42:16.719Z,29.17
2022-12-04T21:44:43.531Z,28.77
2022-12-04T21:47:13.024Z,26.97
2022-12-04T21:49:39.923Z,27.77
2022-12-04T21:52:06.865Z,28.90
2022-12-04T21:54:33.759Z,29.57
2022-12-04T21:57:00.651Z,27.10
2022-12-04T21:59:27.662Z,28.83
2022-12-04T22:01:54.870Z,26.80
2022-12-04T22:04:22.134Z,30.10
2022-12-04T22:06:49.202Z,28.37
2022-12-04T22:09:16.362Z,27.47
2022-12-04T22:11:43.780Z,26.73
2022-12-04T22:14:11.557Z,28.57
2022-12-04T22:16:42.464Z,28.43
2022-12-04T22:19:11.105Z,28.47
2022-12-04T22:21:38.205Z,28.47
2022-12-04T22:24:05.660Z,27.07
2022-12-04T22:26:32.799Z,26.67
2022-12-04T22:28:59.954Z,27.97
2022-12-04T22:31:28.624Z,27.13
2022-12-04T22:33:57.825Z,27.03
2022-12-04T22:36:27.806Z,28.70
2022-12-04T22:39:11.023Z,26.67
2022-12-04T22:41:38.525Z,27.63
2022-12-04T22:44:05.662Z,27.53
2022-12-04T22:46:32.654Z,26.67
2022-12-04T22:49:00.000Z,29.30
2022-12-04T22:51:27.704Z,28.87
2022-12-04T22:53:56.811Z,28.10
2022-12-04T22:56:29.124Z,30.73
2022-12-04T22:58:57.729Z,25.70
2022-12-04T23:01:34.341Z,28.53
2022-12-04T23:04:02.640Z,26.53
2022-12-04T23:06:31.997Z,27.27
2022-12-04T23:09:04.811Z,31.20
2022-12-04T23:11:31.698Z,28.43
2022-12-04T23:14:01.358Z,28.43
2022-12-04T23:16:29.799Z,28.67
2022-12-04T23:18:56.817Z,29.73
2022-12-04T23:21:24.173Z,28.40
2022-12-04T23:23:52.727Z,27.33
2022-12-04T23:26:21.645Z,28.53
2022-12-04T23:28:50.996Z,30.37
2022-12-04T23:31:18.591Z,30.90
2022-12-04T23:33:45.449Z,32.60
2022-12-04T23:36:13.434Z,29.13
2022-12-04T23:38:41.709Z,30.07
2022-12-04T23:41:12.775Z,30.90
2022-12-04T23:43:41.011Z,27.40
2022-12-04T23:46:11.251Z,29.07
2022-12-04T23:51:13.772Z,28.53
2022-12-04T23:53:41.118Z,28.50
2022-12-04T23:56:11.849Z,30.23
2022-12-04T23:58:40.067Z,30.73
